Time;durP1;ratioP1;P1;durP2;ratioP2;P2;SDS_P1;SDS_P2;PMS_P1;PMS_P2;Temp;Humidity;BMP_temperature;BMP_pressure;BME280_temperature;BME280_humidity;BME280_pressure;Samples;Min_cycle;Max_cycle;Signal;HPM_P1;HPM_P2
2024/01/07 00:02:19;;;;;;;22.00;16.50;;;;;;;-0.63;100.00;98275.88;109276;1254;59060;-71
2024/01/07 00:04:45;;;;;;;20.10;15.60;;;;;;;-0.63;100.00;98276.25;109301;1254;66542;-70
2024/01/07 00:07:12;;;;;;;23.60;16.00;;;;;;;-0.64;100.00;98279.40;109315;1254;60165;-71
2024/01/07 00:09:39;;;;;;;20.30;16.60;;;;;;;-0.63;100.00;98280.94;109151;1254;65160;-72
2024/01/07 00:12:06;;;;;;;20.10;16.50;;;;;;;-0.63;100.00;98280.59;109161;1254;58941;-71
2024/01/07 00:14:32;;;;;;;25.60;18.70;;;;;;;-0.64;100.00;98286.38;109028;1254;59041;-71
2024/01/07 00:16:59;;;;;;;22.60;17.50;;;;;;;-0.64;100.00;98288.13;109296;1254;67051;-71
2024/01/07 00:19:25;;;;;;;26.00;19.80;;;;;;;-0.64;100.00;98285.16;108509;1254;1002799;-72
2024/01/07 00:21:52;;;;;;;22.30;18.90;;;;;;;-0.65;100.00;98287.27;109284;1254;59142;-71
2024/01/07 00:24:19;;;;;;;22.80;17.20;;;;;;;-0.66;100.00;98287.48;109306;1254;59059;-71
2024/01/07 00:26:45;;;;;;;23.70;18.60;;;;;;;-0.68;100.00;98288.06;109323;1254;58988;-72
2024/01/07 00:29:12;;;;;;;24.10;18.80;;;;;;;-0.70;100.00;98286.57;109286;1254;65937;-71
2024/01/07 00:31:38;;;;;;;26.20;20.00;;;;;;;-0.74;100.00;98291.40;109381;1252;61112;-72
2024/01/07 00:34:05;;;;;;;25.60;19.50;;;;;;;-0.76;100.00;98297.59;109445;1252;64004;-72
2024/01/07 00:36:31;;;;;;;25.50;20.00;;;;;;;-0.79;100.00;98301.54;109453;1252;59250;-71
2024/01/07 00:38:58;;;;;;;23.90;17.60;;;;;;;-0.83;100.00;98301.65;109460;1252;59139;-72
2024/01/07 00:41:25;;;;;;;24.50;19.20;;;;;;;-0.86;100.00;98308.02;109438;1252;66107;-70
2024/01/07 00:43:52;;;;;;;25.10;19.00;;;;;;;-0.87;100.00;98304.03;109433;1252;61128;-70
2024/01/07 00:46:19;;;;;;;24.10;19.10;;;;;;;-0.89;100.00;98304.80;109345;1252;63746;-71
2024/01/07 00:48:45;;;;;;;26.00;18.90;;;;;;;-0.92;100.00;98308.90;109454;1252;58996;-71
2024/01/07 00:51:12;;;;;;;27.40;19.90;;;;;;;-0.92;100.00;98312.73;109439;1252;59014;-71
2024/01/07 00:53:38;;;;;;;22.60;18.60;;;;;;;-0.92;100.00;98317.80;109461;1252;67117;-72
2024/01/07 00:56:06;;;;;;;22.60;19.00;;;;;;;-0.92;100.00;98315.19;109467;1252;60075;-71
2024/01/07 00:58:32;;;;;;;22.50;18.30;;;;;;;-0.93;100.00;98316.79;109436;1252;65065;-71
2024/01/07 01:01:00;;;;;;;25.80;19.50;;;;;;;-0.97;100.00;98316.03;109426;1252;59330;-71
2024/01/07 01:03:26;;;;;;;23.70;18.60;;;;;;;-0.99;100.00;98317.86;109447;1252;59044;-70
2024/01/07 01:05:53;;;;;;;23.30;17.70;;;;;;;-1.03;100.00;98323.73;109468;1252;76426;-70
2024/01/07 01:08:20;;;;;;;23.20;17.30;;;;;;;-1.05;100.00;98323.45;109446;1252;61051;-71
2024/01/07 01:10:47;;;;;;;19.50;15.70;;;;;;;-1.07;100.00;98326.98;109455;1252;65014;-71
2024/01/07 01:13:13;;;;;;;23.90;18.10;;;;;;;-1.09;100.00;98328.63;109507;1251;59278;-71
2024/01/07 01:15:40;;;;;;;23.80;18.10;;;;;;;-1.09;100.00;98330.39;109542;1251;59039;-72
2024/01/07 01:18:06;;;;;;;21.50;17.10;;;;;;;-1.09;100.00;98330.55;109580;1251;67020;-72
2024/01/07 01:20:33;;;;;;;26.20;19.70;;;;;;;-1.10;100.00;98328.31;109557;1251;61200;-71
2024/01/07 01:23:00;;;;;;;25.10;18.80;;;;;;;-1.12;100.00;98330.44;109496;1251;65252;-69
2024/01/07 01:25:27;;;;;;;21.20;17.50;;;;;;;-1.14;100.00;98331.90;109265;1251;59016;-71
2024/01/07 01:27:53;;;;;;;23.10;18.60;;;;;;;-1.18;100.00;98332.89;109585;1251;58886;-70
2024/01/07 01:30:20;;;;;;;21.40;17.10;;;;;;;-1.20;100.00;98335.39;109538;1251;67014;-71
2024/01/07 01:32:46;;;;;;;17.60;14.20;;;;;;;-1.22;100.00;98339.48;109324;1251;60558;-71
2024/01/07 01:35:13;;;;;;;20.10;16.20;;;;;;;-1.28;100.00;98338.45;109465;1251;65305;-71
2024/01/07 01:37:39;;;;;;;18.20;14.90;;;;;;;-1.34;100.00;98340.17;109509;1251;58978;-71
2024/01/07 01:40:06;;;;;;;19.60;15.30;;;;;;;-1.39;100.00;98343.81;109555;1251;59136;-71
2024/01/07 01:42:33;;;;;;;18.80;15.40;;;;;;;-1.43;100.00;98344.96;109529;1251;67026;-72
2024/01/07 01:45:01;;;;;;;18.50;14.30;;;;;;;-1.45;100.00;98347.28;109517;1251;60085;-71
2024/01/07 01:47:31;;;;;;;18.40;15.50;;;;;;;-1.47;100.00;98350.13;109527;1251;64812;-71
2024/01/07 01:49:58;;;;;;;19.20;15.30;;;;;;;-1.49;100.00;98347.40;109505;1251;59012;-72
2024/01/07 01:52:26;;;;;;;19.80;15.40;;;;;;;-1.50;100.00;98346.58;109522;1251;59073;-72
2024/01/07 01:54:52;;;;;;;19.20;15.80;;;;;;;-1.51;100.00;98348.70;109554;1255;67245;-71
2024/01/07 01:57:22;;;;;;;19.40;15.00;;;;;;;-1.52;100.00;98347.15;109559;1250;60107;-71
2024/01/07 01:59:48;;;;;;;20.90;16.00;;;;;;;-1.51;100.00;98348.52;109542;1251;65140;-71
2024/01/07 02:02:15;;;;;;;20.10;15.40;;;;;;;-1.50;100.00;98347.80;109502;1251;59071;-71
2024/01/07 02:04:42;;;;;;;19.20;15.60;;;;;;;-1.52;100.00;98346.95;109504;1251;58913;-72
2024/01/07 02:07:09;;;;;;;19.40;14.40;;;;;;;-1.53;100.00;98346.48;109549;1251;66945;-71
2024/01/07 02:09:36;;;;;;;19.70;15.80;;;;;;;-1.55;100.00;98346.02;109521;1251;59096;-71
2024/01/07 02:12:11;;;;;;;21.40;16.10;;;;;;;-1.57;100.00;98345.19;109553;1251;65051;-72
2024/01/07 02:14:39;;;;;;;21.10;16.30;;;;;;;-1.57;100.00;98349.02;109483;1251;58948;-71
2024/01/07 02:17:05;;;;;;;21.00;18.20;;;;;;;-1.56;100.00;98350.56;109456;1251;58920;-72
2024/01/07 02:19:32;;;;;;;20.20;16.50;;;;;;;-1.57;100.00;98350.92;109493;1255;66299;-72
2024/01/07 02:21:59;;;;;;;23.20;17.10;;;;;;;-1.55;100.00;98348.27;109381;1251;61065;-72
2024/01/07 02:24:25;;;;;;;22.20;16.90;;;;;;;-1.55;100.00;98349.14;109530;1251;64002;-72
2024/01/07 02:26:52;;;;;;;15.40;12.80;;;;;;;-1.58;100.00;98348.89;109454;1251;58997;-72
2024/01/07 02:29:18;;;;;;;15.70;13.30;;;;;;;-1.63;100.00;98354.60;109529;1251;59036;-72
2024/01/07 02:31:45;;;;;;;16.30;12.70;;;;;;;-1.67;100.00;98353.84;109499;1251;67043;-72
2024/01/07 02:34:11;;;;;;;15.40;12.70;;;;;;;-1.71;100.00;98356.73;109548;1251;60985;-73
2024/01/07 02:36:38;;;;;;;15.70;12.30;;;;;;;-1.75;100.00;98357.20;109524;1251;64782;-72
2024/01/07 02:39:05;;;;;;;13.60;11.20;;;;;;;-1.79;100.00;98364.08;109507;1251;59447;-72
2024/01/07 02:41:31;;;;;;;16.60;11.90;;;;;;;-1.83;100.00;98364.73;109547;1251;59227;-72
2024/01/07 02:43:58;;;;;;;13.60;11.70;;;;;;;-1.87;100.00;98361.34;109449;1251;66713;-72
2024/01/07 02:46:24;;;;;;;16.50;12.50;;;;;;;-1.89;100.00;98362.29;109502;1250;61111;-72
2024/01/07 02:48:51;;;;;;;13.20;10.90;;;;;;;-1.92;100.00;98361.66;109519;1251;64106;-72
2024/01/07 02:51:18;;;;;;;14.20;12.20;;;;;;;-1.94;100.00;98362.58;109502;1250;58924;-72
2024/01/07 02:53:44;;;;;;;15.40;12.70;;;;;;;-1.97;100.00;98360.92;109538;1255;59047;-72
2024/01/07 02:56:11;;;;;;;15.80;12.40;;;;;;;-1.99;100.00;98362.54;109463;1251;67220;-72
2024/01/07 02:58:37;;;;;;;14.50;12.50;;;;;;;-2.01;100.00;98365.91;109530;1251;59698;-72
2024/01/07 03:01:09;;;;;;;16.20;13.10;;;;;;;-2.04;100.00;98365.46;109418;1254;63981;-72
2024/01/07 03:03:36;;;;;;;14.80;11.50;;;;;;;-2.06;100.00;98366.39;109523;1251;58990;-72
2024/01/07 03:06:03;;;;;;;13.90;11.20;;;;;;;-2.09;100.00;98364.55;109474;1251;59028;-72
2024/01/07 03:08:31;;;;;;;17.00;12.10;;;;;;;-2.09;100.00;98365.95;109386;1251;67202;-72
2024/01/07 03:10:57;;;;;;;13.20;11.10;;;;;;;-2.10;100.00;98367.34;108801;1250;1002106;-72
2024/01/07 03:13:24;;;;;;;14.70;11.10;;;;;;;-2.12;100.00;98366.02;108744;1251;1002368;-72
2024/01/07 03:15:50;;;;;;;15.10;10.90;;;;;;;-2.13;100.00;98365.87;109521;1251;58923;-72
2024/01/07 03:18:17;;;;;;;15.60;11.70;;;;;;;-2.14;100.00;98365.55;109362;1251;59024;-71
2024/01/07 03:20:43;;;;;;;16.70;12.80;;;;;;;-2.15;100.00;98366.28;109480;1251;58961;-72
2024/01/07 03:23:10;;;;;;;12.50;9.70;;;;;;;-2.17;100.00;98367.72;109561;1250;59186;-72
2024/01/07 03:25:36;;;;;;;12.90;11.10;;;;;;;-2.21;100.00;98371.48;108746;1251;1002205;-72
2024/01/07 03:28:03;;;;;;;13.30;10.80;;;;;;;-2.25;100.00;98372.08;108761;1251;1002442;-72
2024/01/07 03:30:30;;;;;;;13.00;10.90;;;;;;;-2.29;100.00;98375.16;109516;1251;59013;-72
2024/01/07 03:32:56;;;;;;;13.60;10.80;;;;;;;-2.32;100.00;98372.97;109545;1251;64482;-72
2024/01/07 03:35:24;;;;;;;13.90;10.80;;;;;;;-2.35;100.00;98375.48;109497;1251;59987;-72
2024/01/07 03:37:50;;;;;;;12.40;9.80;;;;;;;-2.36;100.00;98376.56;109507;1251;65078;-72
2024/01/07 03:40:17;;;;;;;12.90;10.70;;;;;;;-2.37;100.00;98379.55;109453;1251;59026;-72
2024/01/07 03:42:43;;;;;;;13.00;11.10;;;;;;;-2.39;100.00;98381.50;109506;1251;59084;-72
2024/01/07 03:45:10;;;;;;;13.60;9.90;;;;;;;-2.39;100.00;98376.80;108735;1252;1002645;-73
2024/01/07 03:47:36;;;;;;;12.30;10.90;;;;;;;-2.41;100.00;98382.05;109503;1251;60243;-72
2024/01/07 03:50:03;;;;;;;13.30;10.40;;;;;;;-2.46;100.00;98382.52;109513;1255;65207;-71
2024/01/07 03:52:30;;;;;;;13.90;9.60;;;;;;;-2.49;100.00;98383.48;109404;1251;59043;-72
2024/01/07 03:54:56;;;;;;;10.60;9.00;;;;;;;-2.55;100.00;98383.64;109502;1251;61998;-72
2024/01/07 03:57:23;;;;;;;11.10;9.70;;;;;;;-2.58;100.00;98385.27;109539;1251;67010;-73
2024/01/07 03:59:49;;;;;;;11.40;9.60;;;;;;;-2.60;100.00;98385.33;109509;1251;60028;-73
2024/01/07 04:02:16;;;;;;;11.70;9.50;;;;;;;-2.62;100.00;98390.05;109490;1251;73618;-73
2024/01/07 04:04:43;;;;;;;10.30;8.60;;;;;;;-2.64;100.00;98391.29;109522;1251;58960;-73
2024/01/07 04:07:09;;;;;;;11.70;9.80;;;;;;;-2.64;100.00;98395.66;109484;1252;59377;-73
2024/01/07 04:09:36;;;;;;;10.00;8.60;;;;;;;-2.64;100.00;98401.21;109528;1251;65958;-73
2024/01/07 04:12:03;;;;;;;10.00;7.80;;;;;;;-2.63;100.00;98405.73;109539;1251;60192;-73
2024/01/07 04:14:29;;;;;;;12.00;9.20;;;;;;;-2.65;100.00;98406.80;109526;1251;64233;-72
2024/01/07 04:16:56;;;;;;;11.40;9.40;;;;;;;-2.66;100.00;98405.95;109530;1251;58937;-73
2024/01/07 04:19:22;;;;;;;14.50;10.30;;;;;;;-2.67;100.00;98404.75;109535;1251;58862;-73
2024/01/07 04:21:49;;;;;;;13.60;10.50;;;;;;;-2.67;100.00;98403.36;109558;1251;65722;-73
2024/01/07 04:24:16;;;;;;;12.80;10.50;;;;;;;-2.67;100.00;98402.51;109508;1252;61153;-74
2024/01/07 04:26:42;;;;;;;11.50;9.70;;;;;;;-2.67;100.00;98407.55;109509;1251;74261;-73
2024/01/07 04:29:09;;;;;;;11.80;9.50;;;;;;;-2.69;100.00;98408.29;109509;1251;59012;-73
2024/01/07 04:31:36;;;;;;;11.60;9.70;;;;;;;-2.71;100.00;98409.38;108761;1255;1002975;-73
2024/01/07 04:34:03;;;;;;;12.70;9.10;;;;;;;-2.72;100.00;98412.38;109525;1251;66001;-73
2024/01/07 04:36:29;;;;;;;10.90;9.40;;;;;;;-2.75;100.00;98413.83;109514;1254;61010;-73
2024/01/07 04:38:56;;;;;;;11.30;9.20;;;;;;;-2.76;100.00;98420.64;109441;1250;65240;-73
2024/01/07 04:41:23;;;;;;;12.00;9.20;;;;;;;-2.78;100.00;98423.46;109467;1253;58977;-73
2024/01/07 04:43:50;;;;;;;12.80;10.00;;;;;;;-2.81;100.00;98425.61;109540;1251;59320;-73
2024/01/07 04:46:17;;;;;;;12.10;10.10;;;;;;;-2.82;100.00;98430.33;109566;1251;66418;-72
2024/01/07 04:48:44;;;;;;;13.70;10.10;;;;;;;-2.85;100.00;98432.30;109541;1251;61358;-72
2024/01/07 04:51:10;;;;;;;12.70;10.70;;;;;;;-2.88;100.00;98433.58;109334;1251;64567;-72
2024/01/07 04:53:37;;;;;;;11.10;9.70;;;;;;;-2.90;100.00;98435.54;109518;1251;59306;-72
2024/01/07 04:56:04;;;;;;;11.60;9.90;;;;;;;-2.90;100.00;98439.88;109499;1251;59022;-72
2024/01/07 04:58:30;;;;;;;10.40;8.90;;;;;;;-2.92;100.00;98438.35;109522;1251;67048;-72
2024/01/07 05:00:57;;;;;;;11.40;8.90;;;;;;;-2.93;100.00;98437.69;109529;1251;60404;-72
2024/01/07 05:03:24;;;;;;;12.20;10.50;;;;;;;-2.95;100.00;98439.64;109507;1251;65527;-72
2024/01/07 05:05:51;;;;;;;13.30;9.90;;;;;;;-2.98;100.00;98443.00;109509;1251;58978;-72
2024/01/07 05:08:18;;;;;;;11.70;8.90;;;;;;;-2.99;100.00;98446.17;109522;1251;59047;-73
2024/01/07 05:10:44;;;;;;;15.40;11.70;;;;;;;-3.01;100.00;98448.11;109528;1254;67313;-73
2024/01/07 05:13:11;;;;;;;12.10;9.40;;;;;;;-3.02;100.00;98449.18;109554;1251;60083;-73
2024/01/07 05:15:37;;;;;;;12.90;10.70;;;;;;;-3.02;100.00;98450.40;109505;1251;65007;-73
2024/01/07 05:18:09;;;;;;;14.40;11.60;;;;;;;-3.03;100.00;98450.93;109490;1251;58938;-73
2024/01/07 05:20:35;;;;;;;12.50;10.90;;;;;;;-3.03;100.00;98455.27;109287;1251;59855;-72
2024/01/07 05:23:02;;;;;;;13.20;11.00;;;;;;;-3.04;100.00;98455.13;109531;1251;67065;-72
2024/01/07 05:25:29;;;;;;;14.30;11.00;;;;;;;-3.03;100.00;98457.89;109528;1251;61303;-72
2024/01/07 05:27:55;;;;;;;11.90;9.60;;;;;;;-3.04;100.00;98457.41;109490;1254;64011;-72
2024/01/07 05:30:22;;;;;;;12.60;9.50;;;;;;;-3.06;100.00;98459.52;109505;1251;59048;-72
2024/01/07 05:32:48;;;;;;;14.40;9.70;;;;;;;-3.09;100.00;98462.52;109533;1251;58926;-72
2024/01/07 05:35:15;;;;;;;10.60;9.30;;;;;;;-3.10;100.00;98465.16;109531;1251;66031;-73
2024/01/07 05:37:41;;;;;;;11.20;8.70;;;;;;;-3.10;100.00;98469.68;109539;1251;60123;-75
2024/01/07 05:40:09;;;;;;;12.80;10.10;;;;;;;-3.11;100.00;98469.00;109473;1254;65078;-72
2024/01/07 05:42:35;;;;;;;9.80;8.80;;;;;;;-3.11;100.00;98470.56;109518;1251;59036;-73
2024/01/07 05:45:03;;;;;;;11.50;8.30;;;;;;;-3.13;100.00;98473.39;109532;1253;59054;-72
2024/01/07 05:47:30;;;;;;;10.70;8.10;;;;;;;-3.16;100.00;98471.17;109522;1251;66877;-72
2024/01/07 05:49:56;;;;;;;12.50;9.80;;;;;;;-3.15;100.00;98471.86;109536;1251;60155;-71
2024/01/07 05:52:23;;;;;;;10.70;8.50;;;;;;;-3.15;100.00;98472.73;109508;1251;64162;-72
2024/01/07 05:54:49;;;;;;;9.70;8.20;;;;;;;-3.17;100.00;98475.04;109538;1251;59007;-72
2024/01/07 05:57:16;;;;;;;10.60;9.20;;;;;;;-3.18;100.00;98479.73;109485;1253;58979;-73
2024/01/07 05:59:45;;;;;;;11.70;8.00;;;;;;;-3.18;100.00;98478.33;109526;1251;65638;-72
2024/01/07 06:02:12;;;;;;;13.90;10.70;;;;;;;-3.18;100.00;98479.55;109538;1251;60143;-71
2024/01/07 06:04:39;;;;;;;11.30;8.50;;;;;;;-3.19;100.00;98482.54;109499;1254;65021;-73
2024/01/07 06:07:06;;;;;;;11.60;9.30;;;;;;;-3.20;100.00;98482.91;109501;1251;59001;-71
2024/01/07 06:09:32;;;;;;;13.20;9.40;;;;;;;-3.21;100.00;98482.39;109548;1253;59091;-73
2024/01/07 06:11:59;;;;;;;14.70;10.50;;;;;;;-3.20;100.00;98487.60;109544;1252;67063;-74
2024/01/07 06:14:26;;;;;;;13.40;10.60;;;;;;;-3.18;100.00;98488.77;109479;1251;60933;-71
2024/01/07 06:16:52;;;;;;;13.50;11.00;;;;;;;-3.16;100.00;98492.38;109504;1251;73963;-72
2024/01/07 06:19:19;;;;;;;15.20;12.20;;;;;;;-3.17;100.00;98493.95;109529;1251;59542;-71
2024/01/07 06:21:46;;;;;;;15.00;11.90;;;;;;;-3.17;100.00;98498.47;109493;1251;59074;-72
2024/01/07 06:24:12;;;;;;;16.60;12.00;;;;;;;-3.17;100.00;98502.12;109487;1251;67148;-72
2024/01/07 06:26:40;;;;;;;15.30;11.90;;;;;;;-3.17;100.00;98504.02;109518;1252;59867;-72
2024/01/07 06:29:09;;;;;;;16.50;10.90;;;;;;;-3.16;100.00;98506.63;109495;1251;73969;-72
2024/01/07 06:31:36;;;;;;;16.20;10.90;;;;;;;-3.16;100.00;98508.02;109503;1251;59497;-72
2024/01/07 06:34:02;;;;;;;13.30;10.40;;;;;;;-3.18;100.00;98511.70;109501;1254;59154;-72
2024/01/07 06:36:29;;;;;;;14.00;10.90;;;;;;;-3.19;100.00;98518.33;109455;1251;66054;-73
2024/01/07 06:38:55;;;;;;;14.20;11.20;;;;;;;-3.21;100.00;98523.74;109555;1253;60014;-73
2024/01/07 06:41:22;;;;;;;14.50;10.90;;;;;;;-3.22;100.00;98522.55;109522;1252;59273;-72
2024/01/07 06:43:49;;;;;;;13.40;10.70;;;;;;;-3.23;100.00;98520.31;109502;1251;59128;-72
2024/01/07 06:46:16;;;;;;;13.20;10.60;;;;;;;-3.23;100.00;98523.61;109523;1251;59069;-73
2024/01/07 06:48:43;;;;;;;14.10;10.00;;;;;;;-3.22;100.00;98522.03;108770;1251;1002770;-72
2024/01/07 06:51:09;;;;;;;14.40;9.60;;;;;;;-3.23;100.00;98522.92;108774;1254;1003096;-73
2024/01/07 06:53:36;;;;;;;13.40;9.90;;;;;;;-3.23;100.00;98521.88;109513;1251;64740;-73
2024/01/07 06:56:03;;;;;;;11.40;9.60;;;;;;;-3.22;100.00;98525.50;109540;1252;59033;-73
2024/01/07 06:58:29;;;;;;;10.40;8.10;;;;;;;-3.21;100.00;98524.63;109513;1251;59385;-73
2024/01/07 07:00:56;;;;;;;10.00;7.40;;;;;;;-3.22;100.00;98531.40;109529;1251;67044;-73
2024/01/07 07:03:22;;;;;;;9.10;8.10;;;;;;;-3.24;100.00;98536.83;109507;1251;61001;-72
2024/01/07 07:05:49;;;;;;;9.50;7.60;;;;;;;-3.26;100.00;98538.79;109368;1251;65234;-73
2024/01/07 07:08:16;;;;;;;10.60;7.90;;;;;;;-3.27;100.00;98547.84;109474;1253;59168;-73
2024/01/07 07:10:42;;;;;;;10.10;6.40;;;;;;;-3.28;100.00;98550.63;109256;1251;59321;-73
2024/01/07 07:13:11;;;;;;;13.80;9.70;;;;;;;-3.28;100.00;98553.08;109508;1255;66373;-73
2024/01/07 07:15:38;;;;;;;10.60;8.20;;;;;;;-3.29;100.00;98556.04;108787;1251;1002393;-72
2024/01/07 07:18:04;;;;;;;11.80;7.60;;;;;;;-3.29;100.00;98559.34;108755;1251;1002136;-73
2024/01/07 07:20:31;;;;;;;9.70;8.40;;;;;;;-3.29;100.00;98561.42;109461;1250;58928;-73
2024/01/07 07:22:58;;;;;;;10.10;7.00;;;;;;;-3.28;100.00;98560.52;109534;1251;59082;-73
2024/01/07 07:25:24;;;;;;;10.50;8.50;;;;;;;-3.26;100.00;98560.15;109491;1251;58914;-72
2024/01/07 07:27:51;;;;;;;11.30;7.90;;;;;;;-3.23;100.00;98562.17;109469;1251;59152;-73
2024/01/07 07:30:18;;;;;;;11.40;8.40;;;;;;;-3.19;100.00;98561.42;109494;1251;59033;-72
2024/01/07 07:32:44;;;;;;;10.80;8.60;;;;;;;-3.17;100.00;98564.14;109474;1251;59039;-73
2024/01/07 07:35:11;;;;;;;11.80;8.30;;;;;;;-3.15;100.00;98566.20;109536;1251;58933;-74
2024/01/07 07:37:38;;;;;;;13.40;9.50;;;;;;;-3.11;100.00;98566.64;109492;1251;67153;-73
2024/01/07 07:40:05;;;;;;;11.80;8.00;;;;;;;-3.06;100.00;98566.04;109468;1251;61021;-71
2024/01/07 07:42:31;;;;;;;11.50;8.10;;;;;;;-3.02;100.00;98566.48;109500;1251;63756;-73
2024/01/07 07:44:58;;;;;;;16.00;10.40;;;;;;;-3.00;100.00;98573.04;109524;1251;59202;-73
2024/01/07 07:47:25;;;;;;;9.40;7.80;;;;;;;-2.98;100.00;98577.34;109325;1251;59360;-73
2024/01/07 07:49:51;;;;;;;12.10;8.90;;;;;;;-2.96;100.00;98580.25;109539;1251;67218;-74
2024/01/07 07:52:21;;;;;;;13.30;10.30;;;;;;;-2.94;100.00;98583.17;109535;1251;61023;-74
2024/01/07 07:54:48;;;;;;;14.00;9.70;;;;;;;-2.91;100.00;98583.81;109515;1251;64599;-73
2024/01/07 07:57:14;;;;;;;13.50;10.70;;;;;;;-2.88;100.00;98586.36;109497;1251;59397;-73
2024/01/07 07:59:41;;;;;;;10.20;8.60;;;;;;;-2.87;100.00;98586.34;109482;1251;59008;-73
2024/01/07 08:02:08;;;;;;;12.40;9.70;;;;;;;-2.88;100.00;98589.30;109486;1251;67035;-73
2024/01/07 08:04:34;;;;;;;11.00;9.00;;;;;;;-2.87;100.00;98589.47;109457;1251;60227;-73
2024/01/07 08:07:01;;;;;;;11.20;8.80;;;;;;;-2.85;100.00;98587.02;109337;1251;65111;-73
2024/01/07 08:09:28;;;;;;;10.70;8.30;;;;;;;-2.85;100.00;98589.79;109459;1251;59016;-73
2024/01/07 08:11:55;;;;;;;10.60;8.00;;;;;;;-2.83;100.00;98592.02;109524;1251;59126;-73
2024/01/07 08:14:21;;;;;;;11.10;8.30;;;;;;;-2.80;100.00;98594.38;109488;1251;66986;-72
2024/01/07 08:16:48;;;;;;;11.80;8.40;;;;;;;-2.78;100.00;98599.55;109527;1251;60083;-73
2024/01/07 08:19:14;;;;;;;10.70;8.30;;;;;;;-2.75;100.00;98602.11;109497;1251;65000;-72
2024/01/07 08:21:41;;;;;;;10.10;8.20;;;;;;;-2.71;100.00;98603.08;109509;1251;59000;-72
2024/01/07 08:24:07;;;;;;;10.90;8.80;;;;;;;-2.67;100.00;98606.29;109503;1251;60357;-73
2024/01/07 08:26:34;;;;;;;12.30;8.70;;;;;;;-2.65;100.00;98608.68;109336;1251;67026;-74
2024/01/07 08:29:00;;;;;;;10.60;8.10;;;;;;;-2.59;100.00;98610.84;109466;1253;61030;-72
2024/01/07 08:31:27;;;;;;;11.50;8.50;;;;;;;-2.54;100.00;98608.83;109391;1253;65113;-72
2024/01/07 08:33:53;;;;;;;11.80;8.80;;;;;;;-2.50;100.00;98608.91;109242;1253;59020;-75
2024/01/07 08:36:20;;;;;;;12.60;8.50;;;;;;;-2.45;100.00;98611.58;109475;1253;59018;-74
2024/01/07 08:38:46;;;;;;;11.40;8.80;;;;;;;-2.46;100.00;98614.91;109514;1254;66957;-73
2024/01/07 08:41:16;;;;;;;11.50;8.50;;;;;;;-2.45;100.00;98615.94;109499;1253;61220;-72
2024/01/07 08:43:43;;;;;;;10.70;8.60;;;;;;;-2.38;100.00;98614.06;109454;1254;64064;-72
2024/01/07 08:46:13;;;;;;;12.70;8.90;;;;;;;-2.35;100.00;98622.16;109451;1253;58950;-73
2024/01/07 08:48:39;;;;;;;14.60;9.80;;;;;;;-2.31;100.00;98625.56;109464;1253;59162;-73
2024/01/07 08:51:06;;;;;;;12.60;8.30;;;;;;;-2.29;100.00;98622.73;109470;1254;67140;-74
2024/01/07 08:53:33;;;;;;;11.70;9.20;;;;;;;-2.26;100.00;98624.40;109498;1254;60008;-72
2024/01/07 08:55:59;;;;;;;11.80;8.60;;;;;;;-2.21;100.00;98626.73;109513;1252;65220;-74
2024/01/07 08:58:26;;;;;;;11.20;8.70;;;;;;;-2.12;100.00;98625.17;109478;1253;59234;-73
2024/01/07 09:00:52;;;;;;;11.20;8.60;;;;;;;-2.09;100.00;98624.58;109473;1252;59082;-73
2024/01/07 09:03:19;;;;;;;10.70;7.70;;;;;;;-2.05;100.00;98631.77;109219;1252;66061;-72
2024/01/07 09:05:46;;;;;;;10.20;7.90;;;;;;;-2.00;100.00;98632.55;109495;1253;61063;-73
2024/01/07 09:08:14;;;;;;;9.50;7.80;;;;;;;-1.95;100.00;98634.35;109512;1253;64516;-73
2024/01/07 09:10:41;;;;;;;11.40;8.40;;;;;;;-1.94;100.00;98636.75;109484;1253;59061;-73
2024/01/07 09:13:07;;;;;;;12.70;8.50;;;;;;;-1.96;100.00;98640.48;109505;1253;59370;-73
2024/01/07 09:15:34;;;;;;;12.10;9.00;;;;;;;-1.98;100.00;98637.73;109249;1252;67037;-74
2024/01/07 09:18:00;;;;;;;13.10;9.90;;;;;;;-1.95;100.00;98638.54;109518;1254;60018;-72
2024/01/07 09:20:27;;;;;;;11.20;8.40;;;;;;;-1.93;100.00;98639.36;108706;1253;1002884;-72
2024/01/07 09:22:54;;;;;;;10.00;8.30;;;;;;;-1.93;100.00;98638.31;108487;1252;1002672;-72
2024/01/07 09:25:20;;;;;;;10.30;7.70;;;;;;;-1.92;100.00;98644.37;109510;1253;59070;-73
2024/01/07 09:27:47;;;;;;;11.60;8.70;;;;;;;-1.94;100.00;98642.70;108699;1253;1002294;-73
2024/01/07 09:30:14;;;;;;;12.10;8.60;;;;;;;-1.90;100.00;98639.46;109379;1254;59056;-74
2024/01/07 09:32:41;;;;;;;10.40;7.90;;;;;;;-1.87;100.00;98641.85;109474;1252;65209;-72
2024/01/07 09:35:08;;;;;;;10.50;8.20;;;;;;;-1.89;100.00;98642.92;109458;1253;59408;-73
2024/01/07 09:37:36;;;;;;;10.90;8.60;;;;;;;-1.93;100.00;98641.63;109487;1253;59238;-72
2024/01/07 09:40:06;;;;;;;10.90;8.20;;;;;;;-1.90;100.00;98643.29;109381;1254;67040;-73
2024/01/07 09:42:33;;;;;;;;;;;;;;;-1.84;100.00;98644.39;109252;1253;60340;-73
2024/01/07 09:45:03;;;;;;;10.60;8.10;;;;;;;-1.81;100.00;98646.23;109430;1253;65081;-73
2024/01/07 09:47:30;;;;;;;10.70;7.70;;;;;;;-1.75;100.00;98646.44;108739;1254;1002820;-73
2024/01/07 09:49:57;;;;;;;10.70;8.20;;;;;;;-1.71;100.00;98646.52;109497;1254;59257;-73
2024/01/07 09:52:25;;;;;;;9.30;7.40;;;;;;;-1.73;100.00;98644.13;109513;1253;65931;-73
2024/01/07 09:54:57;;;;;;;11.20;9.00;;;;;;;-1.74;100.00;98643.98;109522;1252;60510;-73
2024/01/07 09:57:25;;;;;;;12.60;9.60;;;;;;;-1.71;100.00;98643.40;109437;1254;64797;-73
2024/01/07 09:59:52;;;;;;;11.90;8.80;;;;;;;-1.64;100.00;98640.96;109475;1253;59020;-73
2024/01/07 10:02:20;;;;;;;14.20;9.30;;;;;;;-1.58;100.00;98640.64;109491;1253;58892;-73
2024/01/07 10:04:48;;;;;;;11.20;8.80;;;;;;;-1.53;100.00;98641.73;109255;1254;65702;-73
2024/01/07 10:07:15;;;;;;;13.50;10.00;;;;;;;-1.45;100.00;98641.72;108752;1253;1003043;-73
2024/01/07 10:09:44;;;;;;;12.40;9.20;;;;;;;-1.38;100.00;98635.64;109454;1254;65084;-74
2024/01/07 10:12:12;;;;;;;12.20;9.30;;;;;;;-1.37;100.00;98631.77;109495;1253;59029;-72
2024/01/07 10:14:40;;;;;;;14.90;9.80;;;;;;;-1.37;100.00;98631.77;109440;1252;58923;-74
2024/01/07 10:17:16;;;;;;;11.20;8.50;;;;;;;-1.41;100.00;98629.77;109454;1254;67214;-74
2024/01/07 10:19:46;;;;;;;11.30;8.90;;;;;;;-1.41;100.00;98630.30;109421;1254;61298;-73
2024/01/07 10:22:13;;;;;;;9.30;7.50;;;;;;;-1.40;100.00;98634.80;109456;1252;64123;-73
2024/01/07 10:24:41;;;;;;;9.00;7.50;;;;;;;-1.46;100.00;98638.09;109466;1252;59291;-72
2024/01/07 10:27:09;;;;;;;10.50;7.50;;;;;;;-1.49;100.00;98635.02;109493;1251;59011;-72
2024/01/07 10:29:35;;;;;;;9.10;7.50;;;;;;;-1.59;100.00;98631.62;109528;1251;67168;-74
2024/01/07 10:32:04;;;;;;;8.90;6.40;;;;;;;-1.70;100.00;98631.52;109475;1251;61135;-73
2024/01/07 10:34:33;;;;;;;9.50;7.30;;;;;;;-1.72;100.00;98631.90;109496;1251;65151;-73
2024/01/07 10:37:01;;;;;;;10.00;7.40;;;;;;;-1.70;100.00;98631.86;109521;1251;58983;-72
2024/01/07 10:39:28;;;;;;;9.20;7.80;;;;;;;-1.69;100.00;98636.04;109515;1251;59117;-73
2024/01/07 10:41:59;;;;;;;7.90;5.90;;;;;;;-1.73;100.00;98635.93;108681;1251;1002392;-73
2024/01/07 10:44:29;;;;;;;10.80;7.30;;;;;;;-1.69;100.00;98638.29;109544;1251;61066;-72
2024/01/07 10:46:56;;;;;;;11.10;7.70;;;;;;;-1.65;100.00;98636.13;109495;1251;65170;-73
2024/01/07 10:49:24;;;;;;;9.40;7.00;;;;;;;-1.70;100.00;98633.78;109471;1251;59065;-73
2024/01/07 10:52:11;;;;;;;10.80;7.70;;;;;;;-1.71;100.00;98633.81;109512;1251;59042;-73
2024/01/07 10:54:40;;;;;;;9.20;7.40;;;;;;;-1.74;100.00;98631.27;109166;1256;67092;-73
2024/01/07 10:57:17;;;;;;;9.60;7.10;;;;;;;-1.76;100.00;98631.84;109180;1256;61191;-73
2024/01/07 10:59:45;;;;;;;10.00;6.80;;;;;;;-1.76;100.00;98634.80;109164;1256;65087;-73
2024/01/07 11:02:13;;;;;;;10.50;7.70;;;;;;;-1.72;100.00;98632.25;109162;1256;59072;-74
2024/01/07 11:05:03;;;;;;;11.50;7.60;;;;;;;-1.68;100.00;98632.00;109065;1257;59073;-73